sensor_id;sensor_type;location;lat;lon;timestamp;pressure;altitude;pressure_sealevel;temperature;humidity
59531;BME280;45349;48.692;8.186;2023-06-22T00:01:11;98649.09;;;21.33;96.20
59531;BME280;45349;48.692;8.186;2023-06-22T00:03:37;98674.69;;;21.46;94.54
59531;BME280;45349;48.692;8.186;2023-06-22T00:06:04;98718.53;;;21.74;90.97
59531;BME280;45349;48.692;8.186;2023-06-22T00:08:30;98777.06;;;22.04;89.47
59531;BME280;45349;48.692;8.186;2023-06-22T00:10:58;98854.38;;;22.40;85.57
59531;BME280;45349;48.692;8.186;2023-06-22T00:13:25;98832.16;;;22.53;88.08
59531;BME280;45349;48.692;8.186;2023-06-22T00:15:51;98780.06;;;22.45;89.24
59531;BME280;45349;48.692;8.186;2023-06-22T00:18:18;98737.47;;;22.33;89.60
59531;BME280;45349;48.692;8.186;2023-06-22T00:20:45;98716.34;;;22.20;90.96
59531;BME280;45349;48.692;8.186;2023-06-22T00:23:12;98707.97;;;22.04;91.61
59531;BME280;45349;48.692;8.186;2023-06-22T00:25:41;98701.88;;;21.85;92.99
59531;BME280;45349;48.692;8.186;2023-06-22T00:28:09;98694.03;;;21.72;94.03
59531;BME280;45349;48.692;8.186;2023-06-22T00:30:35;98676.41;;;21.59;95.59
59531;BME280;45349;48.692;8.186;2023-06-22T00:33:02;98660.97;;;21.49;96.01
59531;BME280;45349;48.692;8.186;2023-06-22T00:35:33;98654.31;;;21.39;96.40
59531;BME280;45349;48.692;8.186;2023-06-22T00:38:00;98665.81;;;21.33;97.06
59531;BME280;45349;48.692;8.186;2023-06-22T00:40:29;98659.56;;;21.28;97.51
59531;BME280;45349;48.692;8.186;2023-06-22T00:42:57;98656.97;;;21.21;97.99
59531;BME280;45349;48.692;8.186;2023-06-22T00:45:25;98650.94;;;21.14;99.02
59531;BME280;45349;48.692;8.186;2023-06-22T00:47:53;98650.09;;;21.13;98.98
59531;BME280;45349;48.692;8.186;2023-06-22T00:50:26;98654.47;;;21.07;99.42
59531;BME280;45349;48.692;8.186;2023-06-22T00:52:54;98640.00;;;21.03;99.69
59531;BME280;45349;48.692;8.186;2023-06-22T00:55:24;98623.38;;;20.89;100.00
59531;BME280;45349;48.692;8.186;2023-06-22T00:57:51;98625.81;;;20.91;100.00
59531;BME280;45349;48.692;8.186;2023-06-22T01:00:24;98620.53;;;20.91;100.00
59531;BME280;45349;48.692;8.186;2023-06-22T01:02:52;98617.88;;;20.91;100.00
59531;BME280;45349;48.692;8.186;2023-06-22T01:05:24;98617.63;;;20.92;99.65
59531;BME280;45349;48.692;8.186;2023-06-22T01:07:59;98613.16;;;20.93;99.22
59531;BME280;45349;48.692;8.186;2023-06-22T01:10:32;98611.09;;;20.95;99.43
59531;BME280;45349;48.692;8.186;2023-06-22T01:13:02;98608.28;;;20.90;99.31
59531;BME280;45349;48.692;8.186;2023-06-22T01:15:36;98620.38;;;20.86;99.95
59531;BME280;45349;48.692;8.186;2023-06-22T01:18:05;98632.19;;;20.83;100.00
59531;BME280;45349;48.692;8.186;2023-06-22T01:20:36;98633.22;;;20.82;99.77
59531;BME280;45349;48.692;8.186;2023-06-22T01:23:11;98643.25;;;20.80;99.92
59531;BME280;45349;48.692;8.186;2023-06-22T01:25:46;98640.19;;;20.76;99.63
59531;BME280;45349;48.692;8.186;2023-06-22T01:28:24;98643.88;;;20.75;99.81
59531;BME280;45349;48.692;8.186;2023-06-22T01:30:53;98643.72;;;20.70;100.00
59531;BME280;45349;48.692;8.186;2023-06-22T01:33:29;98641.72;;;20.65;100.00
59531;BME280;45349;48.692;8.186;2023-06-22T01:35:57;98637.66;;;20.63;100.00
59531;BME280;45349;48.692;8.186;2023-06-22T01:38:24;98634.31;;;20.49;100.00
59531;BME280;45349;48.692;8.186;2023-06-22T01:40:52;98627.63;;;20.40;100.00
59531;BME280;45349;48.692;8.186;2023-06-22T01:43:20;98624.38;;;20.38;100.00
59531;BME280;45349;48.692;8.186;2023-06-22T01:45:48;98632.00;;;20.27;100.00
59531;BME280;45349;48.692;8.186;2023-06-22T01:48:16;98635.88;;;20.25;100.00
59531;BME280;45349;48.692;8.186;2023-06-22T01:50:43;98632.84;;;20.21;100.00
59531;BME280;45349;48.692;8.186;2023-06-22T01:53:10;98634.91;;;20.19;100.00
59531;BME280;45349;48.692;8.186;2023-06-22T01:55:36;98630.03;;;20.16;100.00
59531;BME280;45349;48.692;8.186;2023-06-22T01:58:03;98626.56;;;20.15;100.00
59531;BME280;45349;48.692;8.186;2023-06-22T02:00:32;98629.59;;;20.19;100.00
59531;BME280;45349;48.692;8.186;2023-06-22T02:03:03;98626.94;;;20.19;100.00
59531;BME280;45349;48.692;8.186;2023-06-22T02:05:38;98630.69;;;20.11;100.00
59531;BME280;45349;48.692;8.186;2023-06-22T02:08:09;98625.41;;;20.04;100.00
59531;BME280;45349;48.692;8.186;2023-06-22T02:10:38;98618.31;;;19.98;100.00
59531;BME280;45349;48.692;8.186;2023-06-22T02:13:10;98620.16;;;19.98;100.00
59531;BME280;45349;48.692;8.186;2023-06-22T02:15:37;98626.06;;;19.93;100.00
59531;BME280;45349;48.692;8.186;2023-06-22T02:18:04;98615.47;;;19.93;100.00
59531;BME280;45349;48.692;8.186;2023-06-22T02:20:36;98605.72;;;19.94;100.00
59531;BME280;45349;48.692;8.186;2023-06-22T02:23:03;98601.22;;;19.87;100.00
59531;BME280;45349;48.692;8.186;2023-06-22T02:25:29;98584.94;;;19.84;100.00
59531;BME280;45349;48.692;8.186;2023-06-22T02:27:57;98586.19;;;19.81;100.00
59531;BME280;45349;48.692;8.186;2023-06-22T02:30:23;98582.94;;;19.79;100.00
59531;BME280;45349;48.692;8.186;2023-06-22T02:32:50;98568.66;;;19.80;100.00
59531;BME280;45349;48.692;8.186;2023-06-22T02:35:24;98578.06;;;19.76;100.00
59531;BME280;45349;48.692;8.186;2023-06-22T02:37:53;98575.41;;;19.76;100.00
59531;BME280;45349;48.692;8.186;2023-06-22T02:40:24;98562.53;;;19.80;100.00
59531;BME280;45349;48.692;8.186;2023-06-22T02:42:51;98565.38;;;19.85;100.00
59531;BME280;45349;48.692;8.186;2023-06-22T02:45:22;98549.47;;;19.91;100.00
59531;BME280;45349;48.692;8.186;2023-06-22T02:47:49;98553.88;;;20.04;100.00
59531;BME280;45349;48.692;8.186;2023-06-22T02:50:19;98558.75;;;20.08;100.00
59531;BME280;45349;48.692;8.186;2023-06-22T02:52:46;98552.03;;;20.05;100.00
59531;BME280;45349;48.692;8.186;2023-06-22T02:55:15;98544.53;;;20.02;100.00
59531;BME280;45349;48.692;8.186;2023-06-22T02:57:47;98546.53;;;20.06;100.00
59531;BME280;45349;48.692;8.186;2023-06-22T03:00:22;98544.88;;;20.12;100.00
59531;BME280;45349;48.692;8.186;2023-06-22T03:02:56;98544.81;;;20.19;100.00
59531;BME280;45349;48.692;8.186;2023-06-22T03:05:23;98545.41;;;20.21;99.80
59531;BME280;45349;48.692;8.186;2023-06-22T03:07:50;98545.16;;;20.23;99.16
59531;BME280;45349;48.692;8.186;2023-06-22T03:10:24;98543.72;;;20.27;99.00
59531;BME280;45349;48.692;8.186;2023-06-22T03:12:51;98543.72;;;20.27;98.66
59531;BME280;45349;48.692;8.186;2023-06-22T03:15:22;98536.59;;;20.27;98.29
59531;BME280;45349;48.692;8.186;2023-06-22T03:17:54;98549.00;;;20.27;98.51
59531;BME280;45349;48.692;8.186;2023-06-22T03:20:23;98556.97;;;20.27;98.44
59531;BME280;45349;48.692;8.186;2023-06-22T03:22:52;98546.59;;;20.25;97.83
59531;BME280;45349;48.692;8.186;2023-06-22T03:25:24;98551.66;;;20.27;98.89
59531;BME280;45349;48.692;8.186;2023-06-22T03:27:51;98545.59;;;20.19;98.88
59531;BME280;45349;48.692;8.186;2023-06-22T03:33:03;98538.97;;;20.10;100.00
59531;BME280;45349;48.692;8.186;2023-06-22T03:35:29;98540.84;;;20.03;100.00
59531;BME280;45349;48.692;8.186;2023-06-22T03:37:56;98549.22;;;20.00;100.00
59531;BME280;45349;48.692;8.186;2023-06-22T03:40:24;98539.47;;;19.94;100.00
59531;BME280;45349;48.692;8.186;2023-06-22T03:42:51;98545.41;;;19.89;100.00
59531;BME280;45349;48.692;8.186;2023-06-22T03:45:22;98534.41;;;19.85;100.00
59531;BME280;45349;48.692;8.186;2023-06-22T03:47:49;98532.78;;;19.84;100.00
59531;BME280;45349;48.692;8.186;2023-06-22T03:50:15;98528.09;;;19.86;100.00
59531;BME280;45349;48.692;8.186;2023-06-22T03:52:42;98522.19;;;19.84;100.00
59531;BME280;45349;48.692;8.186;2023-06-22T03:55:09;98515.47;;;19.82;100.00
59531;BME280;45349;48.692;8.186;2023-06-22T03:57:37;98519.31;;;19.93;100.00
59531;BME280;45349;48.692;8.186;2023-06-22T04:00:05;98518.50;;;19.92;100.00
59531;BME280;45349;48.692;8.186;2023-06-22T04:02:37;98521.75;;;20.19;99.20
59531;BME280;45349;48.692;8.186;2023-06-22T04:05:04;98517.44;;;20.69;93.50
59531;BME280;45349;48.692;8.186;2023-06-22T04:07:31;98521.81;;;20.82;93.28
59531;BME280;45349;48.692;8.186;2023-06-22T04:09:58;98522.06;;;20.99;89.14
59531;BME280;45349;48.692;8.186;2023-06-22T04:12:24;98535.09;;;21.19;88.07
59531;BME280;45349;48.692;8.186;2023-06-22T04:14:52;98531.38;;;21.39;85.21
59531;BME280;45349;48.692;8.186;2023-06-22T04:17:19;98528.78;;;21.51;84.88
59531;BME280;45349;48.692;8.186;2023-06-22T04:19:45;98526.63;;;21.60;84.97
59531;BME280;45349;48.692;8.186;2023-06-22T04:22:12;98529.22;;;21.66;86.25
59531;BME280;45349;48.692;8.186;2023-06-22T04:24:38;98522.56;;;21.57;87.93
59531;BME280;45349;48.692;8.186;2023-06-22T04:27:05;98520.81;;;21.51;88.24
59531;BME280;45349;48.692;8.186;2023-06-22T04:29:32;98511.66;;;21.47;88.63
59531;BME280;45349;48.692;8.186;2023-06-22T04:31:59;98505.78;;;21.45;89.00
59531;BME280;45349;48.692;8.186;2023-06-22T04:34:31;98495.59;;;21.42;89.81
59531;BME280;45349;48.692;8.186;2023-06-22T04:36:58;98500.13;;;21.41;89.53
59531;BME280;45349;48.692;8.186;2023-06-22T04:39:24;98502.53;;;21.43;91.38
59531;BME280;45349;48.692;8.186;2023-06-22T04:41:52;98499.88;;;21.43;91.21
59531;BME280;45349;48.692;8.186;2023-06-22T04:44:20;98506.81;;;21.44;90.47
59531;BME280;45349;48.692;8.186;2023-06-22T04:46:50;98501.63;;;21.49;90.82
59531;BME280;45349;48.692;8.186;2023-06-22T04:49:20;98505.84;;;21.57;90.50
59531;BME280;45349;48.692;8.186;2023-06-22T04:51:48;98497.41;;;21.60;91.04
59531;BME280;45349;48.692;8.186;2023-06-22T04:54:15;98500.00;;;21.66;91.16
59531;BME280;45349;48.692;8.186;2023-06-22T04:56:41;98489.75;;;21.70;90.80
59531;BME280;45349;48.692;8.186;2023-06-22T04:59:08;98486.38;;;21.75;91.04
59531;BME280;45349;48.692;8.186;2023-06-22T05:01:38;98497.34;;;21.78;91.98
59531;BME280;45349;48.692;8.186;2023-06-22T05:04:05;98491.97;;;21.85;90.97
59531;BME280;45349;48.692;8.186;2023-06-22T05:06:33;98492.28;;;21.77;91.32
59531;BME280;45349;48.692;8.186;2023-06-22T05:08:59;98496.56;;;21.78;91.95
59531;BME280;45349;48.692;8.186;2023-06-22T05:11:27;98493.66;;;21.79;92.03
59531;BME280;45349;48.692;8.186;2023-06-22T05:13:54;98494.84;;;21.83;92.80
59531;BME280;45349;48.692;8.186;2023-06-22T05:16:22;98489.50;;;21.83;92.23
59531;BME280;45349;48.692;8.186;2023-06-22T05:18:51;98486.84;;;21.83;94.28
59531;BME280;45349;48.692;8.186;2023-06-22T05:21:18;98487.69;;;21.84;94.60
59531;BME280;45349;48.692;8.186;2023-06-22T05:23:46;98487.56;;;21.91;93.85
59531;BME280;45349;48.692;8.186;2023-06-22T05:26:13;98484.31;;;21.89;92.84
59531;BME280;45349;48.692;8.186;2023-06-22T05:28:39;98491.84;;;21.92;94.12
59531;BME280;45349;48.692;8.186;2023-06-22T05:31:06;98485.88;;;22.08;92.93
59531;BME280;45349;48.692;8.186;2023-06-22T05:33:33;98486.56;;;22.04;92.80
59531;BME280;45349;48.692;8.186;2023-06-22T05:35:59;98493.97;;;22.14;92.42
59531;BME280;45349;48.692;8.186;2023-06-22T05:38:26;98486.09;;;22.19;92.29
59531;BME280;45349;48.692;8.186;2023-06-22T05:40:54;98493.03;;;22.32;92.63
59531;BME280;45349;48.692;8.186;2023-06-22T05:43:21;98486.72;;;22.56;90.18
59531;BME280;45349;48.692;8.186;2023-06-22T05:45:47;98488.41;;;22.87;87.12
59531;BME280;45349;48.692;8.186;2023-06-22T05:48:14;98498.31;;;23.03;85.65
59531;BME280;45349;48.692;8.186;2023-06-22T05:50:41;98496.75;;;23.19;86.16
59531;BME280;45349;48.692;8.186;2023-06-22T05:53:08;98491.19;;;23.33;85.49
59531;BME280;45349;48.692;8.186;2023-06-22T05:55:34;98509.09;;;23.37;83.97
59531;BME280;45349;48.692;8.186;2023-06-22T05:58:02;98509.66;;;22.98;87.38
59531;BME280;45349;48.692;8.186;2023-06-22T06:00:29;98511.31;;;22.88;87.63
59531;BME280;45349;48.692;8.186;2023-06-22T06:02:56;98510.84;;;22.91;88.01
59531;BME280;45349;48.692;8.186;2023-06-22T06:05:28;98505.63;;;22.96;87.85
59531;BME280;45349;48.692;8.186;2023-06-22T06:07:55;98508.22;;;23.20;87.50
59531;BME280;45349;48.692;8.186;2023-06-22T06:10:22;98504.25;;;23.34;85.21
59531;BME280;45349;48.692;8.186;2023-06-22T06:12:49;98493.03;;;23.32;84.94
59531;BME280;45349;48.692;8.186;2023-06-22T06:15:17;98514.78;;;23.41;84.43
59531;BME280;45349;48.692;8.186;2023-06-22T06:17:47;98499.22;;;23.50;82.78
59531;BME280;45349;48.692;8.186;2023-06-22T06:20:14;98507.50;;;23.36;83.53
59531;BME280;45349;48.692;8.186;2023-06-22T06:22:41;98499.50;;;23.36;84.27
59531;BME280;45349;48.692;8.186;2023-06-22T06:25:08;98507.59;;;23.41;83.68
59531;BME280;45349;48.692;8.186;2023-06-22T06:27:35;98506.13;;;23.34;85.19
59531;BME280;45349;48.692;8.186;2023-06-22T06:30:02;98502.81;;;23.43;85.22
59531;BME280;45349;48.692;8.186;2023-06-22T06:32:30;98499.00;;;23.10;86.64
59531;BME280;45349;48.692;8.186;2023-06-22T06:34:57;98491.56;;;23.24;85.72
59531;BME280;45349;48.692;8.186;2023-06-22T06:37:23;98495.50;;;23.51;86.22
59531;BME280;45349;48.692;8.186;2023-06-22T06:39:50;98497.94;;;23.52;86.13
59531;BME280;45349;48.692;8.186;2023-06-22T06:42:16;98496.34;;;23.68;84.67
59531;BME280;45349;48.692;8.186;2023-06-22T06:44:44;98499.66;;;23.58;85.26
59531;BME280;45349;48.692;8.186;2023-06-22T06:47:11;98496.78;;;23.94;83.33
59531;BME280;45349;48.692;8.186;2023-06-22T06:49:39;98503.66;;;23.90;82.67
59531;BME280;45349;48.692;8.186;2023-06-22T06:52:06;98516.72;;;23.74;84.21
59531;BME280;45349;48.692;8.186;2023-06-22T06:54:33;98522.25;;;23.56;85.09
59531;BME280;45349;48.692;8.186;2023-06-22T06:56:59;98531.47;;;23.65;84.98
59531;BME280;45349;48.692;8.186;2023-06-22T06:59:28;98526.03;;;23.60;84.96
59531;BME280;45349;48.692;8.186;2023-06-22T07:01:55;98520.25;;;23.63;84.79
59531;BME280;45349;48.692;8.186;2023-06-22T07:04:22;98519.66;;;23.61;85.51
59531;BME280;45349;48.692;8.186;2023-06-22T07:06:50;98528.41;;;23.73;84.58
59531;BME280;45349;48.692;8.186;2023-06-22T07:09:16;98534.81;;;23.89;84.17
59531;BME280;45349;48.692;8.186;2023-06-22T07:11:44;98525.25;;;24.23;81.36
59531;BME280;45349;48.692;8.186;2023-06-22T07:14:10;98524.69;;;24.38;79.08
59531;BME280;45349;48.692;8.186;2023-06-22T07:16:37;98521.66;;;24.51;77.85
59531;BME280;45349;48.692;8.186;2023-06-22T07:19:03;98517.09;;;24.69;76.78
59531;BME280;45349;48.692;8.186;2023-06-22T07:21:30;98509.41;;;24.89;76.65
59531;BME280;45349;48.692;8.186;2023-06-22T07:23:58;98518.34;;;24.78;75.02
59531;BME280;45349;48.692;8.186;2023-06-22T07:26:24;98522.94;;;25.05;74.31
59531;BME280;45349;48.692;8.186;2023-06-22T07:28:51;98525.16;;;25.35;73.29
59531;BME280;45349;48.692;8.186;2023-06-22T07:31:17;98533.16;;;25.58;70.81
59531;BME280;45349;48.692;8.186;2023-06-22T07:33:44;98524.44;;;25.68;71.18
59531;BME280;45349;48.692;8.186;2023-06-22T07:36:10;98526.03;;;25.41;72.03
59531;BME280;45349;48.692;8.186;2023-06-22T07:38:37;98531.50;;;24.85;74.56
59531;BME280;45349;48.692;8.186;2023-06-22T07:41:05;98547.72;;;25.23;75.57
59531;BME280;45349;48.692;8.186;2023-06-22T07:43:32;98558.09;;;25.41;74.17
59531;BME280;45349;48.692;8.186;2023-06-22T07:45:59;98552.38;;;25.10;75.88
59531;BME280;45349;48.692;8.186;2023-06-22T07:48:26;98554.78;;;25.12;75.82
59531;BME280;45349;48.692;8.186;2023-06-22T07:50:52;98566.09;;;25.19;74.65
59531;BME280;45349;48.692;8.186;2023-06-22T07:53:20;98593.56;;;25.14;73.32
59531;BME280;45349;48.692;8.186;2023-06-22T07:55:48;98609.19;;;25.05;76.02
59531;BME280;45349;48.692;8.186;2023-06-22T07:58:16;98633.19;;;24.83;77.90
59531;BME280;45349;48.692;8.186;2023-06-22T08:00:44;98641.63;;;24.29;81.52
59531;BME280;45349;48.692;8.186;2023-06-22T08:03:10;98634.28;;;24.36;81.17
59531;BME280;45349;48.692;8.186;2023-06-22T08:05:37;98628.56;;;24.27;79.96
59531;BME280;45349;48.692;8.186;2023-06-22T08:08:04;98608.47;;;24.08;81.63
59531;BME280;45349;48.692;8.186;2023-06-22T08:10:31;98581.03;;;23.95;83.95
59531;BME280;45349;48.692;8.186;2023-06-22T08:12:57;98540.03;;;23.67;85.49
59531;BME280;45349;48.692;8.186;2023-06-22T08:15:30;98499.50;;;23.65;86.31
59531;BME280;45349;48.692;8.186;2023-06-22T08:17:57;98484.78;;;24.09;84.45
59531;BME280;45349;48.692;8.186;2023-06-22T08:20:25;98490.97;;;24.71;80.27
59531;BME280;45349;48.692;8.186;2023-06-22T08:22:57;98516.22;;;25.25;76.83
59531;BME280;45349;48.692;8.186;2023-06-22T08:25:35;98561.88;;;25.45;76.07
59531;BME280;45349;48.692;8.186;2023-06-22T08:28:03;98547.75;;;25.72;74.46
59531;BME280;45349;48.692;8.186;2023-06-22T08:30:31;98556.97;;;25.59;74.36
59531;BME280;45349;48.692;8.186;2023-06-22T08:32:57;98580.53;;;25.90;72.84
59531;BME280;45349;48.692;8.186;2023-06-22T08:35:25;98578.22;;;26.04;72.19
59531;BME280;45349;48.692;8.186;2023-06-22T08:37:52;98596.78;;;26.11;70.96
59531;BME280;45349;48.692;8.186;2023-06-22T08:40:23;98593.69;;;26.57;68.18
59531;BME280;45349;48.692;8.186;2023-06-22T08:42:49;98585.47;;;26.31;67.27
59531;BME280;45349;48.692;8.186;2023-06-22T08:45:42;98606.03;;;26.63;67.97
59531;BME280;45349;48.692;8.186;2023-06-22T08:48:08;98581.47;;;26.06;67.74
59531;BME280;45349;48.692;8.186;2023-06-22T08:50:35;98599.03;;;26.57;67.36
59531;BME280;45349;48.692;8.186;2023-06-22T08:53:02;98587.53;;;26.61;68.61
59531;BME280;45349;48.692;8.186;2023-06-22T08:55:28;98580.28;;;26.94;67.11
59531;BME280;45349;48.692;8.186;2023-06-22T08:57:55;98575.75;;;26.95;67.27
59531;BME280;45349;48.692;8.186;2023-06-22T09:00:22;98586.28;;;27.17;67.57
59531;BME280;45349;48.692;8.186;2023-06-22T09:02:50;98566.84;;;26.84;68.14
59531;BME280;45349;48.692;8.186;2023-06-22T09:08:28;98577.03;;;26.87;67.32
59531;BME280;45349;48.692;8.186;2023-06-22T09:10:55;98576.00;;;26.93;66.99
59531;BME280;45349;48.692;8.186;2023-06-22T09:13:21;98552.84;;;27.30;67.95
59531;BME280;45349;48.692;8.186;2023-06-22T09:15:48;98545.13;;;27.44;65.59
59531;BME280;45349;48.692;8.186;2023-06-22T09:18:16;98532.06;;;27.74;64.42
59531;BME280;45349;48.692;8.186;2023-06-22T09:20:43;98513.56;;;27.98;63.99
59531;BME280;45349;48.692;8.186;2023-06-22T09:23:11;98505.53;;;28.13;62.45
59531;BME280;45349;48.692;8.186;2023-06-22T09:25:38;98499.09;;;28.14;61.83
59531;BME280;45349;48.692;8.186;2023-06-22T09:28:05;98494.25;;;28.06;61.73
59531;BME280;45349;48.692;8.186;2023-06-22T09:30:32;98483.50;;;28.37;63.58
59531;BME280;45349;48.692;8.186;2023-06-22T09:32:58;98474.06;;;28.55;60.38
59531;BME280;45349;48.692;8.186;2023-06-22T09:35:27;98467.97;;;27.98;60.88
59531;BME280;45349;48.692;8.186;2023-06-22T09:37:54;98466.09;;;27.93;61.86
59531;BME280;45349;48.692;8.186;2023-06-22T09:40:23;98471.47;;;27.98;62.30
59531;BME280;45349;48.692;8.186;2023-06-22T09:42:49;98470.88;;;28.43;61.86
59531;BME280;45349;48.692;8.186;2023-06-22T09:45:19;98464.41;;;28.49;61.09
59531;BME280;45349;48.692;8.186;2023-06-22T09:47:46;98470.59;;;28.50;62.40
59531;BME280;45349;48.692;8.186;2023-06-22T09:50:12;98486.69;;;28.55;61.09
59531;BME280;45349;48.692;8.186;2023-06-22T09:52:40;98494.78;;;28.34;62.78
59531;BME280;45349;48.692;8.186;2023-06-22T09:55:10;98497.47;;;28.29;62.54
59531;BME280;45349;48.692;8.186;2023-06-22T09:57:36;98501.59;;;28.97;60.57
59531;BME280;45349;48.692;8.186;2023-06-22T10:00:04;98495.41;;;29.02;58.91
59531;BME280;45349;48.692;8.186;2023-06-22T10:02:34;98493.38;;;29.28;60.88
59531;BME280;45349;48.692;8.186;2023-06-22T10:05:00;98488.94;;;29.53;58.04
59531;BME280;45349;48.692;8.186;2023-06-22T10:07:27;98484.16;;;29.45;57.66
59531;BME280;45349;48.692;8.186;2023-06-22T10:09:55;98477.78;;;29.70;58.11
59531;BME280;45349;48.692;8.186;2023-06-22T10:12:21;98470.47;;;29.76;57.67
59531;BME280;45349;48.692;8.186;2023-06-22T10:14:48;98464.38;;;30.00;56.04
59531;BME280;45349;48.692;8.186;2023-06-22T10:17:14;98473.88;;;30.22;56.87
59531;BME280;45349;48.692;8.186;2023-06-22T10:19:41;98469.78;;;30.54;53.90
59531;BME280;45349;48.692;8.186;2023-06-22T10:22:08;98472.00;;;30.46;54.34
59531;BME280;45349;48.692;8.186;2023-06-22T10:24:34;98467.09;;;30.78;53.48
59531;BME280;45349;48.692;8.186;2023-06-22T10:27:02;98463.41;;;30.69;54.03
59531;BME280;45349;48.692;8.186;2023-06-22T10:29:29;98464.56;;;30.38;54.62
59531;BME280;45349;48.692;8.186;2023-06-22T10:31:55;98480.97;;;30.12;55.94
59531;BME280;45349;48.692;8.186;2023-06-22T10:34:22;98463.50;;;30.34;55.05
59531;BME280;45349;48.692;8.186;2023-06-22T10:36:48;98464.19;;;29.91;56.44
59531;BME280;45349;48.692;8.186;2023-06-22T10:39:15;98465.84;;;30.41;57.23
59531;BME280;45349;48.692;8.186;2023-06-22T10:41:42;98466.94;;;30.69;54.57
59531;BME280;45349;48.692;8.186;2023-06-22T10:44:09;98463.31;;;30.98;54.45
59531;BME280;45349;48.692;8.186;2023-06-22T10:46:37;98453.16;;;31.33;53.36
59531;BME280;45349;48.692;8.186;2023-06-22T10:49:04;98453.94;;;31.15;53.38
59531;BME280;45349;48.692;8.186;2023-06-22T10:51:30;98467.31;;;31.77;51.09
59531;BME280;45349;48.692;8.186;2023-06-22T10:53:57;98465.22;;;31.74;52.78
59531;BME280;45349;48.692;8.186;2023-06-22T10:56:24;98468.16;;;31.92;52.08
59531;BME280;45349;48.692;8.186;2023-06-22T10:58:50;98469.94;;;31.83;49.74
59531;BME280;45349;48.692;8.186;2023-06-22T11:01:20;98465.09;;;31.46;51.79
59531;BME280;45349;48.692;8.186;2023-06-22T11:03:46;98452.19;;;31.43;52.18
59531;BME280;45349;48.692;8.186;2023-06-22T11:06:13;98446.66;;;31.15;52.66
59531;BME280;45349;48.692;8.186;2023-06-22T11:08:43;98446.03;;;31.24;53.85
59531;BME280;45349;48.692;8.186;2023-06-22T11:11:10;98445.78;;;31.39;52.95
59531;BME280;45349;48.692;8.186;2023-06-22T11:13:36;98440.81;;;31.46;51.65
59531;BME280;45349;48.692;8.186;2023-06-22T11:16:03;98438.75;;;31.76;53.40
59531;BME280;45349;48.692;8.186;2023-06-22T11:18:32;98438.75;;;31.90;52.54
59531;BME280;45349;48.692;8.186;2023-06-22T11:20:59;98436.91;;;31.39;53.70
59531;BME280;45349;48.692;8.186;2023-06-22T11:23:25;98443.75;;;31.83;50.83
59531;BME280;45349;48.692;8.186;2023-06-22T11:25:53;98459.03;;;31.74;51.00
59531;BME280;45349;48.692;8.186;2023-06-22T11:28:19;98471.78;;;31.11;53.75
59531;BME280;45349;48.692;8.186;2023-06-22T11:30:46;98483.25;;;31.21;55.05
59531;BME280;45349;48.692;8.186;2023-06-22T11:33:13;98495.75;;;31.12;54.15
59531;BME280;45349;48.692;8.186;2023-06-22T11:35:40;98497.09;;;31.34;53.69
59531;BME280;45349;48.692;8.186;2023-06-22T11:38:07;98506.31;;;31.85;51.04
59531;BME280;45349;48.692;8.186;2023-06-22T11:40:34;98504.94;;;31.69;51.31
59531;BME280;45349;48.692;8.186;2023-06-22T11:43:00;98525.88;;;31.96;50.83
59531;BME280;45349;48.692;8.186;2023-06-22T11:45:27;98520.03;;;31.89;50.99
59531;BME280;45349;48.692;8.186;2023-06-22T11:47:53;98515.75;;;31.69;51.72
59531;BME280;45349;48.692;8.186;2023-06-22T11:50:22;98524.13;;;31.48;53.38
59531;BME280;45349;48.692;8.186;2023-06-22T11:52:50;98521.72;;;31.27;53.31
59531;BME280;45349;48.692;8.186;2023-06-22T11:55:22;98521.53;;;31.24;53.13
59531;BME280;45349;48.692;8.186;2023-06-22T11:57:54;98518.94;;;31.51;53.11
59531;BME280;45349;48.692;8.186;2023-06-22T12:00:22;98513.50;;;31.76;51.68
59531;BME280;45349;48.692;8.186;2023-06-22T12:02:49;98501.22;;;31.84;52.39
59531;BME280;45349;48.692;8.186;2023-06-22T12:05:22;98497.44;;;31.85;51.56
59531;BME280;45349;48.692;8.186;2023-06-22T12:07:52;98502.22;;;31.74;52.53
59531;BME280;45349;48.692;8.186;2023-06-22T12:10:23;98509.19;;;31.36;54.10
59531;BME280;45349;48.692;8.186;2023-06-22T12:12:50;98508.91;;;30.95;55.56
59531;BME280;45349;48.692;8.186;2023-06-22T12:15:19;98511.59;;;30.46;56.87
59531;BME280;45349;48.692;8.186;2023-06-22T12:17:46;98511.03;;;30.19;58.21
59531;BME280;45349;48.692;8.186;2023-06-22T12:20:13;98520.41;;;29.87;58.86
59531;BME280;45349;48.692;8.186;2023-06-22T12:22:40;98519.69;;;29.31;60.88
59531;BME280;45349;48.692;8.186;2023-06-22T12:25:09;98508.94;;;29.31;60.88
59531;BME280;45349;48.692;8.186;2023-06-22T12:27:36;98512.09;;;29.49;61.25
59531;BME280;45349;48.692;8.186;2023-06-22T12:30:03;98499.72;;;29.88;60.49
59531;BME280;45349;48.692;8.186;2023-06-22T12:32:31;98500.44;;;30.28;58.87
59531;BME280;45349;48.692;8.186;2023-06-22T12:34:57;98502.47;;;30.71;57.31
59531;BME280;45349;48.692;8.186;2023-06-22T12:37:24;98497.84;;;30.96;55.75
59531;BME280;45349;48.692;8.186;2023-06-22T12:39:51;98496.91;;;31.06;55.86
59531;BME280;45349;48.692;8.186;2023-06-22T12:42:19;98488.56;;;31.46;56.03
59531;BME280;45349;48.692;8.186;2023-06-22T12:44:46;98487.66;;;31.70;53.42
59531;BME280;45349;48.692;8.186;2023-06-22T12:47:13;98494.13;;;31.74;54.12
59531;BME280;45349;48.692;8.186;2023-06-22T12:49:39;98485.88;;;31.27;54.92
59531;BME280;45349;48.692;8.186;2023-06-22T12:52:09;98486.88;;;30.68;56.48
59531;BME280;45349;48.692;8.186;2023-06-22T12:54:36;98489.16;;;30.80;56.51
59531;BME280;45349;48.692;8.186;2023-06-22T12:57:03;98493.66;;;30.85;55.90
59531;BME280;45349;48.692;8.186;2023-06-22T12:59:31;98501.53;;;31.44;54.62
59531;BME280;45349;48.692;8.186;2023-06-22T13:01:58;98507.00;;;31.39;55.54
59531;BME280;45349;48.692;8.186;2023-06-22T13:04:24;98500.91;;;31.08;55.48
59531;BME280;45349;48.692;8.186;2023-06-22T13:06:51;98500.63;;;31.10;56.00